sensor_id;sensor_type;location;lat;lon;timestamp;P1;durP1;ratioP1;P2;durP2;ratioP2
1577;SDS011;57623;53.608;10.004;2023-07-24T00:00:02;5.67;;;5.17;;
1577;SDS011;57623;53.608;10.004;2023-07-24T00:02:30;5.50;;;5.00;;
1577;SDS011;57623;53.608;10.004;2023-07-24T00:04:58;5.83;;;5.33;;
1577;SDS011;57623;53.608;10.004;2023-07-24T00:07:26;5.20;;;4.70;;
1577;SDS011;57623;53.608;10.004;2023-07-24T00:09:54;5.10;;;4.70;;
1577;SDS011;57623;53.608;10.004;2023-07-24T00:12:22;5.07;;;4.67;;
1577;SDS011;57623;53.608;10.004;2023-07-24T00:14:52;4.90;;;4.50;;
1577;SDS011;57623;53.608;10.004;2023-07-24T00:17:21;5.83;;;5.43;;
1577;SDS011;57623;53.608;10.004;2023-07-24T00:19:49;5.30;;;4.90;;
1577;SDS011;57623;53.608;10.004;2023-07-24T00:22:17;5.40;;;4.90;;
1577;SDS011;57623;53.608;10.004;2023-07-24T00:24:45;5.03;;;4.63;;
1577;SDS011;57623;53.608;10.004;2023-07-24T00:27:13;5.13;;;4.63;;
1577;SDS011;57623;53.608;10.004;2023-07-24T00:29:41;4.93;;;4.53;;
1577;SDS011;57623;53.608;10.004;2023-07-24T00:32:10;4.87;;;4.40;;
1577;SDS011;57623;53.608;10.004;2023-07-24T00:34:38;4.73;;;4.43;;
1577;SDS011;57623;53.608;10.004;2023-07-24T00:37:06;5.13;;;4.73;;
1577;SDS011;57623;53.608;10.004;2023-07-24T00:39:34;4.83;;;4.43;;
1577;SDS011;57623;53.608;10.004;2023-07-24T00:42:02;4.90;;;4.50;;
1577;SDS011;57623;53.608;10.004;2023-07-24T00:44:30;4.80;;;4.40;;
1577;SDS011;57623;53.608;10.004;2023-07-24T00:46:58;4.83;;;4.43;;
1577;SDS011;57623;53.608;10.004;2023-07-24T00:49:28;5.90;;;5.30;;
1577;SDS011;57623;53.608;10.004;2023-07-24T00:51:56;5.00;;;4.50;;
1577;SDS011;57623;53.608;10.004;2023-07-24T00:54:24;5.73;;;5.23;;
1577;SDS011;57623;53.608;10.004;2023-07-24T00:56:54;5.13;;;4.73;;
1577;SDS011;57623;53.608;10.004;2023-07-24T00:59:22;5.47;;;5.07;;
1577;SDS011;57623;53.608;10.004;2023-07-24T01:01:50;5.20;;;4.70;;
1577;SDS011;57623;53.608;10.004;2023-07-24T01:04:18;5.30;;;4.83;;
1577;SDS011;57623;53.608;10.004;2023-07-24T01:06:48;5.03;;;4.63;;
1577;SDS011;57623;53.608;10.004;2023-07-24T01:09:16;4.70;;;4.30;;
1577;SDS011;57623;53.608;10.004;2023-07-24T01:11:46;5.17;;;4.77;;
1577;SDS011;57623;53.608;10.004;2023-07-24T01:14:17;5.10;;;4.77;;
1577;SDS011;57623;53.608;10.004;2023-07-24T01:16:50;5.07;;;4.67;;
1577;SDS011;57623;53.608;10.004;2023-07-24T01:19:28;5.00;;;4.60;;
1577;SDS011;57623;53.608;10.004;2023-07-24T01:22:08;4.90;;;4.50;;
1577;SDS011;57623;53.608;10.004;2023-07-24T01:24:46;5.20;;;4.80;;
1577;SDS011;57623;53.608;10.004;2023-07-24T01:27:25;5.40;;;4.90;;
1577;SDS011;57623;53.608;10.004;2023-07-24T01:29:53;5.10;;;4.63;;
1577;SDS011;57623;53.608;10.004;2023-07-24T01:32:21;5.30;;;4.90;;
1577;SDS011;57623;53.608;10.004;2023-07-24T01:34:50;5.20;;;4.80;;
1577;SDS011;57623;53.608;10.004;2023-07-24T01:37:19;5.83;;;5.30;;
1577;SDS011;57623;53.608;10.004;2023-07-24T01:39:49;5.23;;;4.77;;
1577;SDS011;57623;53.608;10.004;2023-07-24T01:42:18;4.97;;;4.57;;
1577;SDS011;57623;53.608;10.004;2023-07-24T01:44:51;5.20;;;4.77;;
1577;SDS011;57623;53.608;10.004;2023-07-24T01:47:20;5.00;;;4.70;;
1577;SDS011;57623;53.608;10.004;2023-07-24T01:49:48;5.13;;;4.70;;
1577;SDS011;57623;53.608;10.004;2023-07-24T01:52:17;5.67;;;5.27;;
1577;SDS011;57623;53.608;10.004;2023-07-24T01:54:45;4.53;;;4.23;;
1577;SDS011;57623;53.608;10.004;2023-07-24T01:57:14;6.40;;;5.80;;
1577;SDS011;57623;53.608;10.004;2023-07-24T01:59:42;5.57;;;5.07;;
1577;SDS011;57623;53.608;10.004;2023-07-24T02:02:12;5.17;;;4.67;;
1577;SDS011;57623;53.608;10.004;2023-07-24T02:04:40;5.80;;;5.30;;
1577;SDS011;57623;53.608;10.004;2023-07-24T02:07:08;5.90;;;5.40;;
1577;SDS011;57623;53.608;10.004;2023-07-24T02:09:36;5.50;;;5.10;;
1577;SDS011;57623;53.608;10.004;2023-07-24T02:12:05;5.60;;;5.20;;
1577;SDS011;57623;53.608;10.004;2023-07-24T02:14:33;6.27;;;5.70;;
1577;SDS011;57623;53.608;10.004;2023-07-24T02:17:01;5.00;;;4.60;;
1577;SDS011;57623;53.608;10.004;2023-07-24T02:19:31;5.37;;;4.97;;
1577;SDS011;57623;53.608;10.004;2023-07-24T02:21:59;5.90;;;5.40;;
1577;SDS011;57623;53.608;10.004;2023-07-24T02:24:26;5.60;;;5.20;;
1577;SDS011;57623;53.608;10.004;2023-07-24T02:26:54;5.10;;;4.70;;
1577;SDS011;57623;53.608;10.004;2023-07-24T02:29:22;5.60;;;5.20;;
1577;SDS011;57623;53.608;10.004;2023-07-24T02:31:50;6.00;;;5.53;;
1577;SDS011;57623;53.608;10.004;2023-07-24T02:34:18;5.67;;;5.27;;
1577;SDS011;57623;53.608;10.004;2023-07-24T02:36:51;6.30;;;5.70;;
1577;SDS011;57623;53.608;10.004;2023-07-24T02:39:20;6.13;;;5.57;;
1577;SDS011;57623;53.608;10.004;2023-07-24T02:41:48;6.83;;;6.20;;
1577;SDS011;57623;53.608;10.004;2023-07-24T02:44:16;5.93;;;5.43;;
1577;SDS011;57623;53.608;10.004;2023-07-24T02:46:44;5.90;;;5.50;;
1577;SDS011;57623;53.608;10.004;2023-07-24T02:49:11;6.70;;;6.10;;
1577;SDS011;57623;53.608;10.004;2023-07-24T02:51:39;6.50;;;6.00;;
1577;SDS011;57623;53.608;10.004;2023-07-24T02:54:09;6.67;;;6.13;;
1577;SDS011;57623;53.608;10.004;2023-07-24T02:56:37;6.97;;;6.43;;
1577;SDS011;57623;53.608;10.004;2023-07-24T02:59:06;6.33;;;5.83;;
1577;SDS011;57623;53.608;10.004;2023-07-24T03:01:34;7.17;;;6.53;;
1577;SDS011;57623;53.608;10.004;2023-07-24T03:04:02;7.00;;;6.47;;
1577;SDS011;57623;53.608;10.004;2023-07-24T03:06:31;6.60;;;6.13;;
1577;SDS011;57623;53.608;10.004;2023-07-24T03:08:59;7.60;;;6.80;;
1577;SDS011;57623;53.608;10.004;2023-07-24T03:11:29;7.87;;;7.07;;
1577;SDS011;57623;53.608;10.004;2023-07-24T03:13:57;6.83;;;6.23;;
1577;SDS011;57623;53.608;10.004;2023-07-24T03:16:25;7.03;;;6.30;;
1577;SDS011;57623;53.608;10.004;2023-07-24T03:18:53;7.47;;;6.70;;
1577;SDS011;57623;53.608;10.004;2023-07-24T03:21:21;6.00;;;5.60;;
1577;SDS011;57623;53.608;10.004;2023-07-24T03:23:49;7.03;;;6.43;;
1577;SDS011;57623;53.608;10.004;2023-07-24T03:26:17;6.90;;;6.30;;
1577;SDS011;57623;53.608;10.004;2023-07-24T03:28:46;6.10;;;5.60;;
1577;SDS011;57623;53.608;10.004;2023-07-24T03:31:14;6.47;;;5.97;;
1577;SDS011;57623;53.608;10.004;2023-07-24T03:33:42;5.90;;;5.40;;
1577;SDS011;57623;53.608;10.004;2023-07-24T03:36:10;5.67;;;5.27;;
1577;SDS011;57623;53.608;10.004;2023-07-24T03:38:38;5.77;;;5.37;;
1577;SDS011;57623;53.608;10.004;2023-07-24T03:41:06;5.33;;;4.93;;
1577;SDS011;57623;53.608;10.004;2023-07-24T03:43:34;5.73;;;5.17;;
1577;SDS011;57623;53.608;10.004;2023-07-24T03:46:03;6.00;;;5.50;;
1577;SDS011;57623;53.608;10.004;2023-07-24T03:48:31;5.97;;;5.37;;
1577;SDS011;57623;53.608;10.004;2023-07-24T03:51:01;6.40;;;5.90;;
1577;SDS011;57623;53.608;10.004;2023-07-24T03:53:29;5.87;;;5.47;;
1577;SDS011;57623;53.608;10.004;2023-07-24T03:55:58;5.53;;;5.13;;
1577;SDS011;57623;53.608;10.004;2023-07-24T03:58:26;6.00;;;5.20;;
1577;SDS011;57623;53.608;10.004;2023-07-24T04:00:54;6.00;;;5.57;;
1577;SDS011;57623;53.608;10.004;2023-07-24T04:03:23;5.90;;;5.40;;
1577;SDS011;57623;53.608;10.004;2023-07-24T04:05:51;6.63;;;6.03;;
1577;SDS011;57623;53.608;10.004;2023-07-24T04:08:19;6.27;;;5.77;;
1577;SDS011;57623;53.608;10.004;2023-07-24T04:10:47;6.37;;;5.80;;
1577;SDS011;57623;53.608;10.004;2023-07-24T04:13:15;6.77;;;6.17;;
1577;SDS011;57623;53.608;10.004;2023-07-24T04:15:43;6.30;;;5.80;;
1577;SDS011;57623;53.608;10.004;2023-07-24T04:18:11;6.37;;;5.87;;
1577;SDS011;57623;53.608;10.004;2023-07-24T04:20:40;5.70;;;5.20;;
1577;SDS011;57623;53.608;10.004;2023-07-24T04:23:08;6.73;;;6.13;;
1577;SDS011;57623;53.608;10.004;2023-07-24T04:25:37;5.77;;;5.37;;
1577;SDS011;57623;53.608;10.004;2023-07-24T04:28:05;6.63;;;5.93;;
1577;SDS011;57623;53.608;10.004;2023-07-24T04:30:33;7.00;;;6.50;;
1577;SDS011;57623;53.608;10.004;2023-07-24T04:33:01;7.20;;;6.60;;
1577;SDS011;57623;53.608;10.004;2023-07-24T04:35:29;7.20;;;6.60;;
1577;SDS011;57623;53.608;10.004;2023-07-24T04:37:58;6.47;;;5.97;;
1577;SDS011;57623;53.608;10.004;2023-07-24T04:40:26;7.60;;;6.60;;
1577;SDS011;57623;53.608;10.004;2023-07-24T04:42:54;6.30;;;5.80;;
1577;SDS011;57623;53.608;10.004;2023-07-24T04:45:22;7.33;;;6.27;;
1577;SDS011;57623;53.608;10.004;2023-07-24T04:47:50;6.90;;;6.30;;
1577;SDS011;57623;53.608;10.004;2023-07-24T04:50:18;6.50;;;6.00;;
1577;SDS011;57623;53.608;10.004;2023-07-24T04:52:46;6.27;;;5.73;;
1577;SDS011;57623;53.608;10.004;2023-07-24T04:55:15;6.73;;;6.13;;
1577;SDS011;57623;53.608;10.004;2023-07-24T04:57:43;7.30;;;6.70;;
1577;SDS011;57623;53.608;10.004;2023-07-24T05:00:11;6.60;;;6.10;;
1577;SDS011;57623;53.608;10.004;2023-07-24T05:02:40;6.43;;;5.83;;
1577;SDS011;57623;53.608;10.004;2023-07-24T05:05:08;8.40;;;6.37;;
1577;SDS011;57623;53.608;10.004;2023-07-24T05:07:36;7.07;;;6.47;;
1577;SDS011;57623;53.608;10.004;2023-07-24T05:10:05;6.40;;;5.80;;
1577;SDS011;57623;53.608;10.004;2023-07-24T05:12:35;5.90;;;5.40;;
1577;SDS011;57623;53.608;10.004;2023-07-24T05:15:03;5.77;;;5.33;;
1577;SDS011;57623;53.608;10.004;2023-07-24T05:17:32;6.50;;;6.00;;
1577;SDS011;57623;53.608;10.004;2023-07-24T05:20:00;6.00;;;5.50;;
1577;SDS011;57623;53.608;10.004;2023-07-24T05:22:28;6.43;;;5.93;;
1577;SDS011;57623;53.608;10.004;2023-07-24T05:24:56;7.03;;;6.43;;
1577;SDS011;57623;53.608;10.004;2023-07-24T05:27:24;6.07;;;5.57;;
1577;SDS011;57623;53.608;10.004;2023-07-24T05:29:53;6.00;;;5.40;;
1577;SDS011;57623;53.608;10.004;2023-07-24T05:32:20;6.10;;;5.60;;
1577;SDS011;57623;53.608;10.004;2023-07-24T05:34:48;7.17;;;6.57;;
1577;SDS011;57623;53.608;10.004;2023-07-24T05:37:16;6.40;;;5.90;;
1577;SDS011;57623;53.608;10.004;2023-07-24T05:39:44;6.60;;;6.00;;
1577;SDS011;57623;53.608;10.004;2023-07-24T05:42:12;6.97;;;6.40;;
1577;SDS011;57623;53.608;10.004;2023-07-24T05:44:40;6.70;;;6.10;;
1577;SDS011;57623;53.608;10.004;2023-07-24T05:47:09;6.33;;;5.83;;
1577;SDS011;57623;53.608;10.004;2023-07-24T05:49:37;6.67;;;5.87;;
1577;SDS011;57623;53.608;10.004;2023-07-24T05:52:08;6.27;;;5.33;;
1577;SDS011;57623;53.608;10.004;2023-07-24T05:54:36;5.70;;;5.30;;
1577;SDS011;57623;53.608;10.004;2023-07-24T05:57:04;6.53;;;6.03;;
1577;SDS011;57623;53.608;10.004;2023-07-24T05:59:32;6.50;;;5.60;;
1577;SDS011;57623;53.608;10.004;2023-07-24T06:02:00;6.87;;;6.27;;
1577;SDS011;57623;53.608;10.004;2023-07-24T06:04:29;6.07;;;5.53;;
1577;SDS011;57623;53.608;10.004;2023-07-24T06:06:58;8.77;;;5.80;;
1577;SDS011;57623;53.608;10.004;2023-07-24T06:09:26;7.20;;;6.50;;
1577;SDS011;57623;53.608;10.004;2023-07-24T06:11:53;6.77;;;6.17;;
1577;SDS011;57623;53.608;10.004;2023-07-24T06:14:21;7.40;;;6.80;;
1577;SDS011;57623;53.608;10.004;2023-07-24T06:16:49;6.10;;;5.60;;
1577;SDS011;57623;53.608;10.004;2023-07-24T06:19:17;7.00;;;6.40;;
1577;SDS011;57623;53.608;10.004;2023-07-24T06:21:47;6.70;;;6.20;;
1577;SDS011;57623;53.608;10.004;2023-07-24T06:24:14;6.70;;;6.20;;
1577;SDS011;57623;53.608;10.004;2023-07-24T06:26:42;7.10;;;6.50;;
1577;SDS011;57623;53.608;10.004;2023-07-24T06:29:10;6.20;;;5.70;;
1577;SDS011;57623;53.608;10.004;2023-07-24T06:31:40;6.90;;;6.30;;
1577;SDS011;57623;53.608;10.004;2023-07-24T06:34:08;6.77;;;6.17;;
1577;SDS011;57623;53.608;10.004;2023-07-24T06:36:36;6.83;;;6.30;;
1577;SDS011;57623;53.608;10.004;2023-07-24T06:39:05;7.17;;;6.33;;
1577;SDS011;57623;53.608;10.004;2023-07-24T06:41:33;6.00;;;5.60;;
1577;SDS011;57623;53.608;10.004;2023-07-24T06:44:01;6.30;;;5.80;;
1577;SDS011;57623;53.608;10.004;2023-07-24T06:46:29;6.70;;;6.20;;
1577;SDS011;57623;53.608;10.004;2023-07-24T06:48:57;7.00;;;6.30;;
1577;SDS011;57623;53.608;10.004;2023-07-24T06:51:25;6.47;;;5.97;;
1577;SDS011;57623;53.608;10.004;2023-07-24T06:53:53;7.23;;;6.53;;
1577;SDS011;57623;53.608;10.004;2023-07-24T06:56:23;7.30;;;6.70;;
1577;SDS011;57623;53.608;10.004;2023-07-24T06:58:51;7.00;;;6.40;;
1577;SDS011;57623;53.608;10.004;2023-07-24T07:01:19;7.17;;;6.47;;
1577;SDS011;57623;53.608;10.004;2023-07-24T07:03:47;7.30;;;6.80;;
1577;SDS011;57623;53.608;10.004;2023-07-24T07:06:15;6.77;;;6.27;;
1577;SDS011;57623;53.608;10.004;2023-07-24T07:08:46;7.07;;;6.47;;
1577;SDS011;57623;53.608;10.004;2023-07-24T07:11:14;7.27;;;6.67;;
1577;SDS011;57623;53.608;10.004;2023-07-24T07:13:43;9.40;;;7.27;;
1577;SDS011;57623;53.608;10.004;2023-07-24T07:16:11;6.77;;;6.10;;
1577;SDS011;57623;53.608;10.004;2023-07-24T07:18:39;6.93;;;6.33;;
1577;SDS011;57623;53.608;10.004;2023-07-24T07:21:07;7.40;;;6.80;;
1577;SDS011;57623;53.608;10.004;2023-07-24T07:23:35;7.20;;;6.60;;
1577;SDS011;57623;53.608;10.004;2023-07-24T07:26:03;6.83;;;6.33;;
1577;SDS011;57623;53.608;10.004;2023-07-24T07:28:31;7.23;;;6.73;;
1577;SDS011;57623;53.608;10.004;2023-07-24T07:31:01;8.67;;;7.97;;
1577;SDS011;57623;53.608;10.004;2023-07-24T07:33:29;7.23;;;6.73;;
1577;SDS011;57623;53.608;10.004;2023-07-24T07:35:57;7.83;;;7.23;;
1577;SDS011;57623;53.608;10.004;2023-07-24T07:38:25;7.37;;;6.87;;
1577;SDS011;57623;53.608;10.004;2023-07-24T07:40:53;7.83;;;7.03;;
1577;SDS011;57623;53.608;10.004;2023-07-24T07:43:21;7.80;;;7.20;;
1577;SDS011;57623;53.608;10.004;2023-07-24T07:45:49;7.60;;;7.10;;
1577;SDS011;57623;53.608;10.004;2023-07-24T07:48:18;7.80;;;7.30;;
1577;SDS011;57623;53.608;10.004;2023-07-24T07:50:49;8.10;;;7.50;;
1577;SDS011;57623;53.608;10.004;2023-07-24T07:53:18;7.60;;;7.00;;
1577;SDS011;57623;53.608;10.004;2023-07-24T07:55:46;7.60;;;7.00;;
1577;SDS011;57623;53.608;10.004;2023-07-24T07:58:21;7.40;;;6.90;;
1577;SDS011;57623;53.608;10.004;2023-07-24T08:00:50;8.03;;;7.43;;
1577;SDS011;57623;53.608;10.004;2023-07-24T08:03:19;8.03;;;7.47;;
1577;SDS011;57623;53.608;10.004;2023-07-24T08:05:47;8.57;;;7.97;;
1577;SDS011;57623;53.608;10.004;2023-07-24T08:08:15;8.07;;;7.43;;
1577;SDS011;57623;53.608;10.004;2023-07-24T08:10:43;8.67;;;7.93;;
1577;SDS011;57623;53.608;10.004;2023-07-24T08:13:11;8.83;;;8.23;;
1577;SDS011;57623;53.608;10.004;2023-07-24T08:15:39;8.90;;;8.20;;
1577;SDS011;57623;53.608;10.004;2023-07-24T08:18:07;8.03;;;7.47;;
1577;SDS011;57623;53.608;10.004;2023-07-24T08:20:37;8.20;;;7.60;;
1577;SDS011;57623;53.608;10.004;2023-07-24T08:23:06;7.53;;;7.00;;
1577;SDS011;57623;53.608;10.004;2023-07-24T08:25:34;8.40;;;7.80;;
1577;SDS011;57623;53.608;10.004;2023-07-24T08:28:02;8.07;;;7.47;;
1577;SDS011;57623;53.608;10.004;2023-07-24T08:30:32;7.97;;;7.27;;
1577;SDS011;57623;53.608;10.004;2023-07-24T08:33:01;8.33;;;7.63;;
1577;SDS011;57623;53.608;10.004;2023-07-24T08:35:29;7.50;;;7.00;;
1577;SDS011;57623;53.608;10.004;2023-07-24T08:37:58;8.23;;;7.63;;
1577;SDS011;57623;53.608;10.004;2023-07-24T08:40:26;8.47;;;7.87;;
1577;SDS011;57623;53.608;10.004;2023-07-24T08:42:54;9.20;;;8.50;;
1577;SDS011;57623;53.608;10.004;2023-07-24T08:45:23;8.40;;;7.77;;
1577;SDS011;57623;53.608;10.004;2023-07-24T08:47:52;8.23;;;7.63;;
1577;SDS011;57623;53.608;10.004;2023-07-24T08:50:20;7.87;;;7.27;;
1577;SDS011;57623;53.608;10.004;2023-07-24T08:52:48;9.07;;;8.37;;
1577;SDS011;57623;53.608;10.004;2023-07-24T08:55:18;8.40;;;7.73;;
1577;SDS011;57623;53.608;10.004;2023-07-24T08:57:47;8.63;;;8.03;;
1577;SDS011;57623;53.608;10.004;2023-07-24T09:00:16;9.37;;;8.67;;
1577;SDS011;57623;53.608;10.004;2023-07-24T09:02:44;9.67;;;8.77;;
1577;SDS011;57623;53.608;10.004;2023-07-24T09:05:12;8.30;;;7.70;;
1577;SDS011;57623;53.608;10.004;2023-07-24T09:07:41;8.77;;;8.07;;
1577;SDS011;57623;53.608;10.004;2023-07-24T09:10:09;8.40;;;7.80;;
1577;SDS011;57623;53.608;10.004;2023-07-24T09:12:39;7.30;;;6.70;;
1577;SDS011;57623;53.608;10.004;2023-07-24T09:15:10;8.90;;;8.20;;
1577;SDS011;57623;53.608;10.004;2023-07-24T09:17:46;8.47;;;7.87;;
1577;SDS011;57623;53.608;10.004;2023-07-24T09:20:16;7.77;;;7.03;;
1577;SDS011;57623;53.608;10.004;2023-07-24T09:22:57;7.50;;;6.90;;
1577;SDS011;57623;53.608;10.004;2023-07-24T09:25:31;6.83;;;6.37;;
1577;SDS011;57623;53.608;10.004;2023-07-24T09:28:08;6.97;;;6.43;;
1577;SDS011;57623;53.608;10.004;2023-07-24T09:30:37;7.83;;;7.23;;
1577;SDS011;57623;53.608;10.004;2023-07-24T09:33:05;7.57;;;7.00;;
1577;SDS011;57623;53.608;10.004;2023-07-24T09:35:33;7.83;;;7.03;;
1577;SDS011;57623;53.608;10.004;2023-07-24T09:38:02;8.00;;;7.40;;
1577;SDS011;57623;53.608;10.004;2023-07-24T09:40:39;8.23;;;7.57;;
1577;SDS011;57623;53.608;10.004;2023-07-24T09:43:17;8.60;;;8.00;;
1577;SDS011;57623;53.608;10.004;2023-07-24T09:46:05;8.30;;;7.60;;
1577;SDS011;57623;53.608;10.004;2023-07-24T09:48:34;8.50;;;7.90;;
1577;SDS011;57623;53.608;10.004;2023-07-24T09:51:08;8.60;;;8.00;;
1577;SDS011;57623;53.608;10.004;2023-07-24T09:53:43;7.60;;;7.00;;
1577;SDS011;57623;53.608;10.004;2023-07-24T09:56:14;7.40;;;6.90;;
1577;SDS011;57623;53.608;10.004;2023-07-24T09:58:47;7.40;;;6.90;;
1577;SDS011;57623;53.608;10.004;2023-07-24T10:01:20;7.13;;;6.63;;
1577;SDS011;57623;53.608;10.004;2023-07-24T10:03:49;7.30;;;6.70;;
1577;SDS011;57623;53.608;10.004;2023-07-24T10:06:17;6.87;;;6.37;;
1577;SDS011;57623;53.608;10.004;2023-07-24T10:08:46;7.93;;;7.23;;
1577;SDS011;57623;53.608;10.004;2023-07-24T10:11:14;6.20;;;5.80;;
1577;SDS011;57623;53.608;10.004;2023-07-24T10:13:42;6.10;;;5.63;;
1577;SDS011;57623;53.608;10.004;2023-07-24T10:16:11;6.53;;;6.10;;
1577;SDS011;57623;53.608;10.004;2023-07-24T10:18:41;7.67;;;7.03;;
1577;SDS011;57623;53.608;10.004;2023-07-24T10:21:11;7.53;;;6.97;;
1577;SDS011;57623;53.608;10.004;2023-07-24T10:23:41;7.30;;;6.60;;
1577;SDS011;57623;53.608;10.004;2023-07-24T10:26:10;7.43;;;6.83;;
1577;SDS011;57623;53.608;10.004;2023-07-24T10:28:39;6.77;;;6.27;;
1577;SDS011;57623;53.608;10.004;2023-07-24T10:31:18;7.53;;;6.93;;
1577;SDS011;57623;53.608;10.004;2023-07-24T10:33:48;7.77;;;7.00;;
1577;SDS011;57623;53.608;10.004;2023-07-24T10:36:17;7.10;;;6.50;;
1577;SDS011;57623;53.608;10.004;2023-07-24T10:38:46;6.70;;;6.20;;
1577;SDS011;57623;53.608;10.004;2023-07-24T10:41:19;7.20;;;6.70;;
1577;SDS011;57623;53.608;10.004;2023-07-24T10:43:48;6.97;;;6.37;;
1577;SDS011;57623;53.608;10.004;2023-07-24T10:46:17;7.73;;;7.07;;
1577;SDS011;57623;53.608;10.004;2023-07-24T10:48:48;6.53;;;5.93;;
1577;SDS011;57623;53.608;10.004;2023-07-24T10:51:18;7.60;;;7.00;;
1577;SDS011;57623;53.608;10.004;2023-07-24T10:53:48;7.10;;;6.60;;
1577;SDS011;57623;53.608;10.004;2023-07-24T10:56:16;8.00;;;7.20;;
1577;SDS011;57623;53.608;10.004;2023-07-24T10:58:44;6.73;;;6.23;;
1577;SDS011;57623;53.608;10.004;2023-07-24T11:01:12;6.40;;;6.00;;
1577;SDS011;57623;53.608;10.004;2023-07-24T11:03:43;6.63;;;6.13;;
1577;SDS011;57623;53.608;10.004;2023-07-24T11:06:12;7.10;;;6.60;;
1577;SDS011;57623;53.608;10.004;2023-07-24T11:08:42;6.90;;;6.40;;
1577;SDS011;57623;53.608;10.004;2023-07-24T11:11:10;6.37;;;5.87;;
1577;SDS011;57623;53.608;10.004;2023-07-24T11:13:38;5.77;;;5.37;;
1577;SDS011;57623;53.608;10.004;2023-07-24T11:16:07;6.63;;;6.13;;
1577;SDS011;57623;53.608;10.004;2023-07-24T11:18:45;6.17;;;5.77;;
1577;SDS011;57623;53.608;10.004;2023-07-24T11:21:20;7.37;;;5.90;;
1577;SDS011;57623;53.608;10.004;2023-07-24T11:23:51;6.40;;;5.90;;
1577;SDS011;57623;53.608;10.004;2023-07-24T11:26:20;6.57;;;5.97;;
1577;SDS011;57623;53.608;10.004;2023-07-24T11:28:48;6.50;;;5.90;;
1577;SDS011;57623;53.608;10.004;2023-07-24T11:31:17;6.63;;;6.03;;
1577;SDS011;57623;53.608;10.004;2023-07-24T11:33:48;6.03;;;5.60;;
1577;SDS011;57623;53.608;10.004;2023-07-24T11:36:17;5.60;;;5.10;;
1577;SDS011;57623;53.608;10.004;2023-07-24T11:38:46;5.83;;;5.33;;
1577;SDS011;57623;53.608;10.004;2023-07-24T11:41:15;5.97;;;5.50;;
1577;SDS011;57623;53.608;10.004;2023-07-24T11:43:45;6.33;;;5.83;;
1577;SDS011;57623;53.608;10.004;2023-07-24T11:46:21;6.13;;;5.73;;
1577;SDS011;57623;53.608;10.004;2023-07-24T11:48:52;6.37;;;5.90;;
1577;SDS011;57623;53.608;10.004;2023-07-24T11:51:24;5.50;;;5.20;;
1577;SDS011;57623;53.608;10.004;2023-07-24T11:54:04;6.80;;;6.20;;
1577;SDS011;57623;53.608;10.004;2023-07-24T11:56:34;6.63;;;6.13;;
1577;SDS011;57623;53.608;10.004;2023-07-24T11:59:08;6.40;;;5.90;;
1577;SDS011;57623;53.608;10.004;2023-07-24T12:01:37;6.23;;;5.80;;
1577;SDS011;57623;53.608;10.004;2023-07-24T12:04:06;6.20;;;5.80;;
1577;SDS011;57623;53.608;10.004;2023-07-24T12:06:35;6.20;;;5.80;;
1577;SDS011;57623;53.608;10.004;2023-07-24T12:09:04;7.23;;;5.20;;
1577;SDS011;57623;53.608;10.004;2023-07-24T12:11:33;5.67;;;5.17;;
1577;SDS011;57623;53.608;10.004;2023-07-24T12:14:01;6.10;;;5.27;;
1577;SDS011;57623;53.608;10.004;2023-07-24T12:16:29;5.73;;;5.33;;
1577;SDS011;57623;53.608;10.004;2023-07-24T12:18:57;5.93;;;5.53;;
1577;SDS011;57623;53.608;10.004;2023-07-24T12:21:26;5.90;;;5.50;;
1577;SDS011;57623;53.608;10.004;2023-07-24T12:23:55;6.17;;;5.77;;
1577;SDS011;57623;53.608;10.004;2023-07-24T12:26:23;6.50;;;6.10;;
1577;SDS011;57623;53.608;10.004;2023-07-24T12:28:51;6.40;;;5.90;;
1577;SDS011;57623;53.608;10.004;2023-07-24T12:31:19;5.83;;;5.43;;
1577;SDS011;57623;53.608;10.004;2023-07-24T12:33:47;5.60;;;5.10;;
1577;SDS011;57623;53.608;10.004;2023-07-24T12:36:15;6.07;;;5.57;;
1577;SDS011;57623;53.608;10.004;2023-07-24T12:38:45;6.53;;;6.13;;
1577;SDS011;57623;53.608;10.004;2023-07-24T12:41:14;5.80;;;5.40;;
1577;SDS011;57623;53.608;10.004;2023-07-24T12:43:42;6.10;;;5.70;;
1577;SDS011;57623;53.608;10.004;2023-07-24T12:46:11;6.00;;;5.60;;
1577;SDS011;57623;53.608;10.004;2023-07-24T12:48:39;6.00;;;5.60;;
1577;SDS011;57623;53.608;10.004;2023-07-24T12:51:07;6.03;;;5.63;;
1577;SDS011;57623;53.608;10.004;2023-07-24T12:53:35;6.23;;;5.77;;
1577;SDS011;57623;53.608;10.004;2023-07-24T12:56:12;6.13;;;5.73;;
1577;SDS011;57623;53.608;10.004;2023-07-24T12:58:40;6.80;;;6.30;;
1577;SDS011;57623;53.608;10.004;2023-07-24T13:01:08;6.43;;;5.93;;
1577;SDS011;57623;53.608;10.004;2023-07-24T13:03:36;5.73;;;5.33;;
1577;SDS011;57623;53.608;10.004;2023-07-24T13:06:04;5.70;;;5.30;;
1577;SDS011;57623;53.608;10.004;2023-07-24T13:08:32;5.70;;;5.20;;
1577;SDS011;57623;53.608;10.004;2023-07-24T13:11:00;5.77;;;5.37;;
1577;SDS011;57623;53.608;10.004;2023-07-24T13:13:29;6.30;;;5.90;;
1577;SDS011;57623;53.608;10.004;2023-07-24T13:15:58;6.20;;;5.80;;
1577;SDS011;57623;53.608;10.004;2023-07-24T13:18:25;6.00;;;5.70;;
1577;SDS011;57623;53.608;10.004;2023-07-24T13:20:54;6.27;;;5.90;;
1577;SDS011;57623;53.608;10.004;2023-07-24T13:23:22;6.03;;;5.63;;
1577;SDS011;57623;53.608;10.004;2023-07-24T13:25:51;5.70;;;5.40;;
1577;SDS011;57623;53.608;10.004;2023-07-24T13:28:19;6.17;;;5.77;;
1577;SDS011;57623;53.608;10.004;2023-07-24T13:30:49;5.90;;;5.60;;
1577;SDS011;57623;53.608;10.004;2023-07-24T13:33:17;5.53;;;5.23;;
1577;SDS011;57623;53.608;10.004;2023-07-24T13:35:45;6.10;;;5.70;;
1577;SDS011;57623;53.608;10.004;2023-07-24T13:38:13;5.77;;;5.40;;
1577;SDS011;57623;53.608;10.004;2023-07-24T13:40:41;5.37;;;5.07;;
1577;SDS011;57623;53.608;10.004;2023-07-24T13:43:09;5.50;;;5.10;;
1577;SDS011;57623;53.608;10.004;2023-07-24T13:45:37;5.50;;;5.10;;
1577;SDS011;57623;53.608;10.004;2023-07-24T13:48:06;5.17;;;4.87;;
1577;SDS011;57623;53.608;10.004;2023-07-24T13:50:34;5.10;;;4.80;;
1577;SDS011;57623;53.608;10.004;2023-07-24T13:53:02;5.97;;;5.47;;
1577;SDS011;57623;53.608;10.004;2023-07-24T13:55:30;4.90;;;4.60;;
1577;SDS011;57623;53.608;10.004;2023-07-24T13:57:58;4.70;;;4.40;;
1577;SDS011;57623;53.608;10.004;2023-07-24T14:00:26;5.20;;;4.80;;
1577;SDS011;57623;53.608;10.004;2023-07-24T14:02:54;5.00;;;4.70;;
1577;SDS011;57623;53.608;10.004;2023-07-24T14:05:24;5.17;;;4.77;;
1577;SDS011;57623;53.608;10.004;2023-07-24T14:07:52;5.07;;;4.77;;
1577;SDS011;57623;53.608;10.004;2023-07-24T14:10:20;4.60;;;4.30;;
1577;SDS011;57623;53.608;10.004;2023-07-24T14:12:48;5.20;;;4.90;;
1577;SDS011;57623;53.608;10.004;2023-07-24T14:15:16;5.23;;;4.83;;
1577;SDS011;57623;53.608;10.004;2023-07-24T14:17:44;5.47;;;5.07;;
1577;SDS011;57623;53.608;10.004;2023-07-24T14:20:12;4.90;;;4.60;;
1577;SDS011;57623;53.608;10.004;2023-07-24T14:22:41;5.10;;;4.70;;
1577;SDS011;57623;53.608;10.004;2023-07-24T14:25:09;5.43;;;5.03;;
1577;SDS011;57623;53.608;10.004;2023-07-24T14:27:37;5.50;;;5.07;;
1577;SDS011;57623;53.608;10.004;2023-07-24T14:30:07;4.93;;;4.63;;
1577;SDS011;57623;53.608;10.004;2023-07-24T14:32:36;4.90;;;4.50;;
1577;SDS011;57623;53.608;10.004;2023-07-24T14:35:05;5.20;;;4.90;;
1577;SDS011;57623;53.608;10.004;2023-07-24T14:37:33;5.30;;;4.90;;
1577;SDS011;57623;53.608;10.004;2023-07-24T14:40:03;4.97;;;4.67;;
1577;SDS011;57623;53.608;10.004;2023-07-24T14:42:32;4.90;;;4.50;;
1577;SDS011;57623;53.608;10.004;2023-07-24T14:45:00;4.90;;;4.60;;
1577;SDS011;57623;53.608;10.004;2023-07-24T14:47:29;5.00;;;4.60;;
1577;SDS011;57623;53.608;10.004;2023-07-24T14:49:58;4.80;;;4.50;;
1577;SDS011;57623;53.608;10.004;2023-07-24T14:52:26;5.97;;;5.47;;
1577;SDS011;57623;53.608;10.004;2023-07-24T14:54:54;5.40;;;5.00;;
1577;SDS011;57623;53.608;10.004;2023-07-24T14:57:23;5.70;;;5.30;;